Current Conditions
Mostly Clear
Conditions



Pressure
1015.92 (hPa) - 30 (inHG)
Visibility

10.0 (km) - 6.2 (miles)
   Temperature
25  °C
77°F
22  °C
Dewpoint
83  %
 Humidity
   Wind Speed
21  km/h
11  kts
13  mph
5.8  m/s
   Wind Direction
 40°
North East
   Airport Data
LTBA
Location Atatürk International 10 km (6.22 mi)
Metar :LTBA 260120Z 04011KT CAVOK 25/22 Q1016 NOSIG RMK RWY17L 04010KT 360V070 RWY05 02011KT RWY23 05011KT
Wed 26th June 04:20 am
   Raw Metar Info
Raw METAR is the most common format in the world for the transmission of observational weather data. It is highly standardized through the International Civil Aviation Organization (ICAO), which allows it to be understood throughout most of the world.
   API Info
Data Provided by
https://www.checkwx.com/weather/
   © Info
CSS/SVG/PHP scripts were developed by weather34.com for use in the weather34 template © 2015-2019

Guide Info provided by Metar-Wikipedia